createdAt,value
2022-12-19T00:01:38.362Z,12.02
2022-12-19T00:04:09.105Z,17.05
2022-12-19T00:06:37.675Z,17.13
2022-12-19T00:09:05.666Z,14.55
2022-12-19T01:26:56.075Z,13.63
2022-12-19T01:29:22.703Z,17.77
2022-12-19T01:31:49.424Z,12.82
2022-12-19T01:34:16.323Z,15.52
2022-12-19T01:59:54.221Z,16.10
2022-12-19T02:02:28.616Z,13.57
2022-12-19T02:04:55.322Z,17.42
2022-12-19T02:07:23.909Z,12.15
2022-12-19T02:09:56.961Z,14.48
2022-12-19T04:22:55.322Z,9.40
2022-12-19T04:25:35.755Z,11.18
2022-12-19T04:28:25.253Z,10.73
2022-12-19T04:30:53.272Z,8.45
2022-12-19T04:44:52.529Z,8.63
2022-12-19T04:47:19.336Z,8.15
2022-12-19T04:49:45.965Z,9.38
2022-12-19T04:52:12.568Z,9.77
2022-12-19T04:54:39.234Z,9.70
2022-12-19T04:57:05.929Z,10.43
2022-12-19T04:59:32.937Z,10.05
2022-12-19T05:01:59.677Z,8.27
2022-12-19T05:08:17.833Z,7.82
2022-12-19T05:10:44.412Z,8.70
2022-12-19T05:13:11.599Z,9.63
2022-12-19T05:15:38.391Z,10.55
2022-12-19T05:33:29.497Z,12.93
2022-12-19T05:35:56.365Z,9.15
2022-12-19T05:38:23.006Z,10.02
2022-12-19T05:40:49.661Z,8.73
2022-12-19T08:01:39.713Z,10.73
2022-12-19T08:04:06.861Z,13.95
2022-12-19T08:06:39.162Z,10.27
2022-12-19T08:09:07.630Z,9.32
2022-12-19T08:26:26.659Z,12.48
2022-12-19T08:28:55.308Z,12.50
2022-12-19T08:31:24.849Z,10.77
2022-12-19T08:33:53.695Z,14.50
2022-12-19T08:47:54.412Z,12.23
2022-12-19T08:50:21.090Z,12.68
2022-12-19T08:52:47.800Z,14.65
2022-12-19T10:13:18.216Z,9.77
2022-12-19T10:15:45.865Z,9.02
2022-12-19T10:18:35.097Z,10.10
2022-12-19T11:29:38.650Z,9.20
2022-12-19T11:29:44.096Z,9.60
2022-12-19T11:29:54.186Z,9.90
2022-12-19T11:30:07.052Z,8.95
2022-12-19T11:34:26.906Z,8.52
2022-12-19T11:37:14.854Z,5.13
2022-12-19T12:00:14.066Z,9.57
2022-12-19T12:03:01.849Z,7.88
2022-12-19T12:05:35.693Z,9.40
2022-12-19T12:31:41.876Z,9.07
2022-12-19T12:31:46.188Z,10.55
2022-12-19T12:32:06.313Z,8.48
2022-12-19T12:35:34.977Z,10.20
2022-12-19T12:38:13.671Z,10.05
2022-12-19T12:47:27.665Z,7.80
2022-12-19T12:50:00.176Z,5.65
2022-12-19T12:52:48.108Z,8.95
2022-12-19T13:12:32.963Z,8.98
2022-12-19T13:15:27.644Z,8.93
2022-12-19T13:17:54.605Z,10.67
2022-12-19T13:28:22.175Z,7.65
2022-12-19T13:31:21.060Z,6.07
2022-12-19T13:33:51.886Z,7.28
2022-12-19T13:44:04.389Z,7.40
2022-12-19T13:46:42.623Z,6.93
2022-12-19T13:49:18.251Z,7.90
2022-12-19T13:51:51.300Z,6.40
2022-12-19T13:54:26.972Z,7.15
2022-12-19T14:04:40.883Z,5.20
2022-12-19T14:07:27.418Z,6.95
2022-12-19T14:13:57.406Z,5.03
2022-12-19T14:15:56.831Z,6.07
2022-12-19T15:01:10.199Z,6.00
2022-12-19T15:04:33.689Z,5.97
2022-12-19T15:07:06.901Z,5.80
2022-12-19T15:11:08.740Z,6.07
2022-12-19T15:24:25.978Z,7.25
2022-12-19T15:26:53.632Z,4.88
2022-12-19T15:29:22.317Z,6.50
2022-12-19T15:31:49.711Z,6.32
2022-12-19T15:34:37.287Z,8.10
2022-12-19T15:56:32.991Z,6.53
2022-12-19T15:59:01.266Z,4.97
2022-12-19T16:01:28.907Z,7.25
2022-12-19T16:03:57.046Z,7.22
2022-12-19T16:06:23.954Z,5.28
2022-12-19T16:36:07.129Z,6.10
2022-12-19T16:41:04.037Z,5.20
2022-12-19T16:47:21.844Z,5.88
2022-12-19T16:49:48.978Z,5.03
2022-12-19T16:52:15.732Z,5.35
2022-12-19T16:54:42.610Z,4.88
2022-12-19T16:57:20.494Z,4.95
2022-12-19T17:07:20.325Z,5.53
2022-12-19T17:09:46.996Z,6.13
2022-12-19T17:12:18.098Z,7.30
2022-12-19T17:14:45.160Z,7.43
2022-12-19T17:17:16.020Z,5.70
2022-12-19T18:04:01.213Z,4.93
2022-12-19T18:06:28.019Z,5.82
2022-12-19T18:08:55.658Z,6.05
2022-12-19T18:11:26.289Z,5.95
2022-12-19T18:13:54.126Z,5.30
2022-12-19T18:16:25.667Z,4.75
2022-12-19T18:22:43.364Z,4.72
2022-12-19T18:25:22.364Z,5.28
2022-12-19T18:27:49.029Z,5.40
2022-12-19T18:30:17.245Z,5.10
2022-12-19T18:32:46.753Z,5.38
2022-12-19T18:35:23.222Z,5.28
2022-12-19T18:49:23.372Z,5.78
2022-12-19T18:51:50.216Z,5.55
2022-12-19T18:54:19.931Z,6.53
2022-12-19T18:56:47.280Z,5.28
2022-12-19T18:59:14.410Z,5.25
2022-12-19T19:16:55.849Z,5.78
2022-12-19T19:19:22.674Z,5.22
2022-12-19T19:21:49.417Z,7.05
2022-12-19T19:24:18.838Z,7.72
2022-12-19T19:26:45.714Z,5.93
2022-12-19T19:39:11.889Z,5.38
2022-12-19T20:18:12.132Z,6.35
2022-12-19T20:20:59.138Z,6.85
2022-12-19T20:23:26.211Z,6.93
2022-12-19T20:25:52.889Z,7.85
2022-12-19T20:32:00.805Z,9.13
2022-12-19T21:13:41.951Z,7.20
2022-12-19T21:16:12.961Z,5.32
2022-12-19T21:18:42.221Z,7.55
2022-12-19T21:32:31.870Z,7.32
2022-12-19T21:34:58.482Z,8.27
2022-12-19T21:37:25.194Z,8.73
2022-12-19T21:57:30.274Z,10.13
2022-12-19T21:59:56.857Z,8.60
2022-12-19T22:02:23.555Z,7.78
2022-12-19T22:04:50.770Z,8.07
2022-12-19T22:07:17.390Z,8.50
2022-12-19T22:09:44.082Z,8.50
2022-12-19T22:27:24.981Z,8.38
2022-12-19T22:29:51.602Z,7.88
2022-12-19T22:32:18.245Z,7.95
2022-12-19T22:34:48.061Z,7.85
2022-12-19T22:37:15.314Z,7.60
2022-12-19T22:55:06.841Z,6.60
2022-12-19T22:57:33.443Z,5.90
2022-12-19T23:00:00.167Z,5.93
2022-12-19T23:02:27.015Z,5.30
2022-12-19T23:04:53.797Z,6.85
2022-12-19T23:07:20.406Z,5.53
2022-12-19T23:25:07.006Z,6.50
2022-12-19T23:27:33.670Z,7.00
2022-12-19T23:30:00.351Z,7.18
2022-12-19T23:32:27.050Z,6.70
2022-12-19T23:34:53.696Z,6.72
2022-12-19T23:48:54.195Z,6.47
2022-12-19T23:51:24.664Z,6.53
2022-12-19T23:53:52.282Z,7.20
2022-12-19T23:56:24.795Z,6.40
2022-12-19T23:58:51.655Z,6.60
